Time;durP1;ratioP1;P1;durP2;ratioP2;P2;SDS_P1;SDS_P2;PMS_P1;PMS_P2;Temp;Humidity;BMP_temperature;BMP_pressure;BME280_temperature;BME280_humidity;BME280_pressure;Samples;Min_cycle;Max_cycle;Signal;HPM_P1;HPM_P2
2021/06/18 00:02:26;;;;;;;36.75;32.42;;;;;;;;;;4309044;33;20359;-85
2021/06/18 00:04:57;;;;;;;35.75;32.28;;;;;;;;;;4304412;33;20072;-86
2021/06/18 00:07:28;;;;;;;35.65;32.47;;;;;;;;;;4308101;33;20044;-85
2021/06/18 00:10:00;;;;;;;36.45;32.45;;;;;;;;;;4308045;33;20116;-85
2021/06/18 00:12:29;;;;;;;26.05;23.58;;;;;;;;;;4306239;33;20103;-85
2021/06/18 00:15:00;;;;;;;28.70;25.95;;;;;;;;;;4307261;33;20064;-85
2021/06/18 00:17:29;;;;;;;29.08;25.80;;;;;;;;;;4305484;33;20067;-85
2021/06/18 00:19:59;;;;;;;25.15;22.77;;;;;;;;;;4313986;33;20118;-85
2021/06/18 00:22:28;;;;;;;27.42;23.50;;;;;;;;;;4305555;33;20056;-85
2021/06/18 00:24:59;;;;;;;35.55;32.40;;;;;;;;;;4312790;33;22845;-85
2021/06/18 00:27:28;;;;;;;35.92;32.35;;;;;;;;;;4304107;33;20090;-85
2021/06/18 00:30:03;;;;;;;31.30;27.87;;;;;;;;;;4298791;33;20217;-85
2021/06/18 00:32:34;;;;;;;31.12;28.02;;;;;;;;;;4305200;33;20053;-85
2021/06/18 00:35:05;;;;;;;30.95;27.90;;;;;;;;;;4304618;33;20100;-85
2021/06/18 00:37:36;;;;;;;30.60;27.60;;;;;;;;;;4295895;33;20171;-86
2021/06/18 00:40:07;;;;;;;29.60;26.90;;;;;;;;;;4301828;33;20696;-86
2021/06/18 00:42:38;;;;;;;37.75;33.85;;;;;;;;;;4305016;33;20060;-85
2021/06/18 00:45:07;;;;;;;37.22;33.42;;;;;;;;;;4307778;33;20116;-86
2021/06/18 00:47:37;;;;;;;37.25;33.55;;;;;;;;;;4320954;33;20072;-85
2021/06/18 00:50:05;;;;;;;25.37;22.98;;;;;;;;;;4301708;33;20077;-85
2021/06/18 00:52:38;;;;;;;23.70;21.60;;;;;;;;;;4309973;33;20052;-87
2021/06/18 00:55:10;;;;;;;25.88;23.15;;;;;;;;;;4310171;33;20065;-85
2021/06/18 00:57:42;;;;;;;26.05;23.27;;;;;;;;;;4314789;33;20052;-85
2021/06/18 01:00:11;;;;;;;26.42;23.20;;;;;;;;;;4305398;33;20486;-85
2021/06/18 01:02:41;;;;;;;24.98;21.25;;;;;;;;;;4310958;33;20522;-85
2021/06/18 01:05:12;;;;;;;23.90;21.55;;;;;;;;;;4307821;33;20122;-84
2021/06/18 01:07:45;;;;;;;24.10;21.73;;;;;;;;;;4303418;33;20154;-87
2021/06/18 01:10:28;;;;;;;28.00;23.08;;;;;;;;;;4306218;33;20135;-86
2021/06/18 01:13:05;;;;;;;26.50;22.27;;;;;;;;;;4317563;33;20079;-85
2021/06/18 01:15:55;;;;;;;25.88;23.20;;;;;;;;;;4319332;33;20068;-86
2021/06/18 01:18:25;;;;;;;28.52;23.00;;;;;;;;;;4313377;33;20549;-85
2021/06/18 01:21:03;;;;;;;30.73;24.75;;;;;;;;;;4309525;33;20127;-85
2021/06/18 01:23:40;;;;;;;29.10;26.20;;;;;;;;;;4306465;33;21235;-86
2021/06/18 01:26:15;;;;;;;29.63;26.73;;;;;;;;;;4311215;33;20100;-85
2021/06/18 01:28:46;;;;;;;28.87;25.95;;;;;;;;;;4314433;33;20110;-84
2021/06/18 01:31:28;;;;;;;27.58;24.77;;;;;;;;;;4316707;33;20617;-86
2021/06/18 01:34:01;;;;;;;28.15;24.87;;;;;;;;;;4311205;33;20126;-86
2021/06/18 01:36:31;;;;;;;30.95;27.90;;;;;;;;;;4307086;33;20143;-85
2021/06/18 01:39:02;;;;;;;27.98;25.08;;;;;;;;;;4312264;33;20102;-85
2021/06/18 01:41:32;;;;;;;30.27;27.10;;;;;;;;;;4325929;33;20127;-86
2021/06/18 01:44:02;;;;;;;40.12;35.97;;;;;;;;;;4310082;33;20100;-85
2021/06/18 01:46:31;;;;;;;38.75;35.00;;;;;;;;;;4306314;33;20127;-86
2021/06/18 01:49:03;;;;;;;34.60;30.42;;;;;;;;;;4309035;33;20139;-85
2021/06/18 01:51:32;;;;;;;34.30;30.30;;;;;;;;;;4307883;33;20116;-86
2021/06/18 01:54:05;;;;;;;34.17;29.55;;;;;;;;;;4310490;33;20104;-86
2021/06/18 01:56:37;;;;;;;33.78;30.05;;;;;;;;;;4312088;33;20132;-86
2021/06/18 01:59:09;;;;;;;33.55;30.40;;;;;;;;;;4304390;33;20107;-86
2021/06/18 02:01:43;;;;;;;34.22;30.95;;;;;;;;;;4312186;33;20108;-86
2021/06/18 02:04:13;;;;;;;40.92;36.83;;;;;;;;;;4319540;33;20092;-86
2021/06/18 02:06:46;;;;;;;40.60;36.90;;;;;;;;;;4310878;33;20064;-85
2021/06/18 02:09:15;;;;;;;46.72;42.15;;;;;;;;;;4317653;33;20051;-85
2021/06/18 02:11:48;;;;;;;30.30;27.60;;;;;;;;;;4310617;33;20620;-85
2021/06/18 02:14:18;;;;;;;29.15;26.27;;;;;;;;;;4314487;33;20130;-85
2021/06/18 02:16:52;;;;;;;44.95;40.50;;;;;;;;;;4305805;33;20479;-86
2021/06/18 02:19:21;;;;;;;44.28;39.55;;;;;;;;;;4307653;33;20144;-85
2021/06/18 02:21:51;;;;;;;44.38;39.88;;;;;;;;;;4310609;33;20100;-85
2021/06/18 02:24:23;;;;;;;55.42;49.83;;;;;;;;;;4304652;33;20227;-86
2021/06/18 02:26:55;;;;;;;53.53;48.05;;;;;;;;;;4300824;33;20582;-85
2021/06/18 02:29:27;;;;;;;42.85;38.67;;;;;;;;;;4309448;33;20112;-86
2021/06/18 02:31:57;;;;;;;45.10;39.90;;;;;;;;;;4310787;33;20101;-85
2021/06/18 02:34:29;;;;;;;50.40;44.90;;;;;;;;;;4303253;33;20876;-85
2021/06/18 02:37:00;;;;;;;47.97;43.22;;;;;;;;;;4300980;33;20178;-86
2021/06/18 02:39:29;;;;;;;33.03;29.85;;;;;;;;;;4312747;33;20485;-85
2021/06/18 02:41:58;;;;;;;32.55;29.37;;;;;;;;;;4297062;33;20117;-86
2021/06/18 02:44:27;;;;;;;33.63;30.08;;;;;;;;;;4311086;33;20091;-85
2021/06/18 02:47:03;;;;;;;34.67;31.05;;;;;;;;;;4306152;33;20076;-85
2021/06/18 02:49:37;;;;;;;54.97;49.67;;;;;;;;;;4303000;33;20171;-84
2021/06/18 02:52:10;;;;;;;34.83;31.17;;;;;;;;;;4312494;33;20128;-86
2021/06/18 02:54:44;;;;;;;40.05;36.33;;;;;;;;;;4297202;33;20518;-86
2021/06/18 02:57:22;;;;;;;42.62;38.35;;;;;;;;;;4303933;33;20143;-86
2021/06/18 03:00:00;;;;;;;27.83;24.60;;;;;;;;;;4304355;33;20091;-85
2021/06/18 03:02:36;;;;;;;50.85;44.95;;;;;;;;;;4305617;33;20542;-86
2021/06/18 03:05:06;;;;;;;52.05;46.47;;;;;;;;;;4302348;33;20111;-85
2021/06/18 03:07:38;;;;;;;41.60;37.00;;;;;;;;;;4313677;33;20064;-85
2021/06/18 03:13:18;;;;;;;;;;;;;;;;;;;;;
2021/06/18 03:16:49;;;;;;;51.25;45.75;;;;;;;;;;4285200;33;20317;-94
2021/06/18 03:20:22;;;;;;;;;;;;;;;;;;;;;
2021/06/18 03:24:01;;;;;;;36.58;32.88;;;;;;;;;;4326764;33;20125;-96
2021/06/18 03:27:29;;;;;;;50.92;45.38;;;;;;;;;;4330025;33;20075;-95
2021/06/18 03:31:07;;;;;;;54.78;49.20;;;;;;;;;;4320642;33;20106;-94
2021/06/18 03:42:57;;;;;;;52.47;42.53;;;;;;;;;;4354269;32;20058;-96
2021/06/18 04:04:17;;;;;;;30.12;24.58;;;;;;;;;;4138412;34;20475;-81
2021/06/18 04:06:49;;;;;;;34.25;25.80;;;;;;;;;;4206191;33;20628;-80
2021/06/18 04:09:19;;;;;;;32.30;25.25;;;;;;;;;;4221071;33;20551;-81
2021/06/18 04:11:48;;;;;;;31.35;26.15;;;;;;;;;;4247525;33;20828;-85
2021/06/18 04:14:17;;;;;;;29.65;26.55;;;;;;;;;;4255588;33;20061;-79
2021/06/18 04:16:45;;;;;;;29.00;26.02;;;;;;;;;;4254311;33;20117;-78
2021/06/18 04:19:14;;;;;;;49.92;40.35;;;;;;;;;;4253625;33;20061;-85
2021/06/18 04:21:45;;;;;;;47.30;40.80;;;;;;;;;;4255547;33;20171;-84
2021/06/18 04:24:16;;;;;;;46.40;40.30;;;;;;;;;;4299326;33;20133;-81
2021/06/18 04:26:45;;;;;;;45.58;40.65;;;;;;;;;;4300246;33;20087;-84
2021/06/18 04:29:16;;;;;;;51.15;43.28;;;;;;;;;;4290476;33;20064;-83
2021/06/18 04:31:47;;;;;;;48.38;43.20;;;;;;;;;;4290742;33;20485;-81
2021/06/18 04:34:19;;;;;;;50.58;42.97;;;;;;;;;;4297478;33;20052;-82
2021/06/18 04:36:50;;;;;;;40.83;36.55;;;;;;;;;;4301092;33;21725;-80
2021/06/18 04:39:18;;;;;;;37.92;31.60;;;;;;;;;;4292714;33;20138;-84
2021/06/18 04:41:47;;;;;;;50.55;45.05;;;;;;;;;;4290471;33;20134;-79
2021/06/18 04:44:17;;;;;;;44.17;39.42;;;;;;;;;;4300164;33;20061;-82
2021/06/18 04:46:49;;;;;;;33.25;27.37;;;;;;;;;;4301091;33;20060;-78
2021/06/18 04:49:17;;;;;;;30.55;27.02;;;;;;;;;;4285103;33;20064;-78
2021/06/18 04:51:48;;;;;;;40.50;35.15;;;;;;;;;;4293409;33;20154;-83
2021/06/18 04:54:21;;;;;;;35.78;27.25;;;;;;;;;;4301625;33;20099;-82
2021/06/18 04:56:52;;;;;;;37.72;27.70;;;;;;;;;;4297436;33;20632;-78
2021/06/18 04:59:23;;;;;;;38.83;33.90;;;;;;;;;;4295411;33;20660;-80
2021/06/18 05:01:54;;;;;;;37.13;29.35;;;;;;;;;;4297805;33;20065;-83
2021/06/18 05:04:25;;;;;;;37.83;30.10;;;;;;;;;;4298543;33;20072;-81
2021/06/18 05:06:54;;;;;;;29.85;26.65;;;;;;;;;;4287849;33;20458;-85
2021/06/18 05:09:25;;;;;;;29.77;26.77;;;;;;;;;;4281705;33;20084;-85
2021/06/18 05:11:55;;;;;;;32.63;27.13;;;;;;;;;;4288537;33;20756;-81
2021/06/18 05:14:24;;;;;;;32.97;29.83;;;;;;;;;;4285157;33;20088;-83
2021/06/18 05:16:55;;;;;;;32.85;29.27;;;;;;;;;;4289401;33;20081;-84
2021/06/18 05:19:24;;;;;;;46.60;42.03;;;;;;;;;;4291118;33;20079;-82
2021/06/18 05:21:52;;;;;;;37.47;33.60;;;;;;;;;;4291317;33;20195;-81
2021/06/18 05:24:20;;;;;;;44.13;39.42;;;;;;;;;;4286437;33;20181;-83
2021/06/18 05:26:52;;;;;;;31.40;28.05;;;;;;;;;;4294675;33;20426;-84
2021/06/18 05:29:20;;;;;;;37.50;28.85;;;;;;;;;;4283542;33;20114;-81
2021/06/18 05:31:56;;;;;;;33.90;27.85;;;;;;;;;;4280419;33;20126;-80
2021/06/18 05:34:24;;;;;;;31.35;27.95;;;;;;;;;;4285612;33;20416;-82
2021/06/18 05:36:53;;;;;;;36.63;32.92;;;;;;;;;;4286292;33;20057;-78
2021/06/18 05:39:22;;;;;;;37.25;33.40;;;;;;;;;;4284833;33;20104;-83
2021/06/18 05:41:50;;;;;;;35.83;31.00;;;;;;;;;;4266533;33;20506;-82
2021/06/18 05:44:21;;;;;;;40.92;36.55;;;;;;;;;;4280881;33;20076;-82
2021/06/18 05:46:50;;;;;;;34.65;30.58;;;;;;;;;;4278326;33;20415;-84
2021/06/18 05:49:20;;;;;;;48.50;38.13;;;;;;;;;;4280443;33;20561;-83
2021/06/18 05:51:52;;;;;;;38.20;33.92;;;;;;;;;;4285221;33;20476;-81
2021/06/18 05:54:25;;;;;;;38.20;34.50;;;;;;;;;;4287629;33;20177;-82
2021/06/18 05:56:57;;;;;;;61.25;55.30;;;;;;;;;;4283997;33;20053;-81
2021/06/18 05:59:27;;;;;;;77.45;65.62;;;;;;;;;;4285981;33;20354;-85
2021/06/18 06:01:58;;;;;;;69.70;62.15;;;;;;;;;;4284052;33;20444;-83
2021/06/18 06:04:29;;;;;;;72.07;63.85;;;;;;;;;;4276793;33;20544;-82
2021/06/18 06:07:00;;;;;;;64.00;57.88;;;;;;;;;;4278480;33;20115;-86
2021/06/18 06:09:32;;;;;;;71.68;65.07;;;;;;;;;;4283121;33;20551;-79
2021/06/18 06:12:03;;;;;;;70.35;63.42;;;;;;;;;;4284458;33;20083;-78
2021/06/18 06:14:32;;;;;;;60.72;54.53;;;;;;;;;;4283683;33;20500;-83
2021/06/18 06:17:04;;;;;;;59.70;53.72;;;;;;;;;;4280644;33;20530;-86
2021/06/18 06:19:33;;;;;;;67.65;60.92;;;;;;;;;;4279472;33;20087;-81
2021/06/18 06:22:01;;;;;;;61.78;54.97;;;;;;;;;;4278468;33;20104;-81
2021/06/18 06:24:32;;;;;;;56.97;50.50;;;;;;;;;;4262933;33;21617;-82
2021/06/18 06:27:03;;;;;;;61.35;54.22;;;;;;;;;;4275935;33;20070;-80
2021/06/18 06:29:34;;;;;;;81.45;67.30;;;;;;;;;;4279996;33;20115;-79
2021/06/18 06:32:05;;;;;;;72.75;65.40;;;;;;;;;;4275960;33;20063;-79
2021/06/18 06:34:36;;;;;;;93.85;85.57;;;;;;;;;;4281650;33;20103;-83
2021/06/18 06:37:04;;;;;;;98.97;89.72;;;;;;;;;;4277488;33;20124;-82
2021/06/18 06:39:33;;;;;;;82.18;74.82;;;;;;;;;;4277696;33;20093;-82
2021/06/18 06:42:04;;;;;;;68.30;62.13;;;;;;;;;;4283698;33;20743;-82
2021/06/18 06:44:33;;;;;;;18.92;16.23;;;;;;;;;;4288198;33;20103;-80
2021/06/18 06:47:04;;;;;;;11.32;2.92;;;;;;;;;;4269698;33;20168;-80
2021/06/18 06:49:33;;;;;;;7.85;2.40;;;;;;;;;;4275951;33;20738;-83
2021/06/18 06:52:04;;;;;;;6.05;1.85;;;;;;;;;;4284318;33;20146;-85
2021/06/18 06:54:33;;;;;;;10.13;2.33;;;;;;;;;;4280795;33;20171;-82
2021/06/18 06:57:01;;;;;;;8.77;2.30;;;;;;;;;;4273802;33;20115;-79
2021/06/18 06:59:29;;;;;;;7.57;2.17;;;;;;;;;;4275658;33;20317;-81
2021/06/18 07:02:01;;;;;;;11.20;2.40;;;;;;;;;;4282771;33;20104;-81
2021/06/18 07:04:32;;;;;;;13.32;2.47;;;;;;;;;;4287048;33;20593;-81
2021/06/18 07:07:00;;;;;;;12.98;2.17;;;;;;;;;;4300741;33;20142;-84
2021/06/18 07:09:37;;;;;;;12.05;2.10;;;;;;;;;;4296145;33;23317;-82
2021/06/18 07:12:10;;;;;;;10.00;2.20;;;;;;;;;;4301120;33;20115;-83
2021/06/18 07:14:41;;;;;;;10.63;2.28;;;;;;;;;;4301713;33;20372;-84
2021/06/18 07:17:12;;;;;;;8.75;2.37;;;;;;;;;;4296447;33;20076;-79
2021/06/18 07:19:43;;;;;;;9.95;2.20;;;;;;;;;;4300672;33;20580;-78
2021/06/18 07:22:12;;;;;;;8.45;2.08;;;;;;;;;;4293220;33;20104;-81
2021/06/18 07:24:43;;;;;;;8.85;2.00;;;;;;;;;;4304635;33;20070;-79
2021/06/18 07:27:12;;;;;;;10.30;2.47;;;;;;;;;;4293402;33;20049;-83
2021/06/18 07:29:41;;;;;;;11.85;2.50;;;;;;;;;;4297323;33;20135;-81
2021/06/18 07:32:11;;;;;;;10.90;2.08;;;;;;;;;;4291802;33;20044;-85
2021/06/18 07:34:40;;;;;;;18.10;2.80;;;;;;;;;;4293932;33;20103;-83
2021/06/18 07:37:09;;;;;;;11.82;2.42;;;;;;;;;;4283092;33;20131;-86
2021/06/18 07:39:48;;;;;;;9.82;2.30;;;;;;;;;;4286948;33;20561;-81
2021/06/18 07:42:34;;;;;;;6.82;1.60;;;;;;;;;;4292986;33;20139;-80
2021/06/18 07:45:03;;;;;;;11.77;1.90;;;;;;;;;;4301177;33;20108;-79
2021/06/18 07:47:35;;;;;;;9.38;1.60;;;;;;;;;;4272811;33;20164;-81
2021/06/18 07:50:04;;;;;;;8.38;2.05;;;;;;;;;;4271539;33;20653;-82
2021/06/18 07:52:35;;;;;;;12.07;2.20;;;;;;;;;;4279026;33;20394;-81
2021/06/18 07:55:09;;;;;;;10.98;2.58;;;;;;;;;;4277647;33;20066;-83
2021/06/18 07:57:41;;;;;;;8.15;2.17;;;;;;;;;;4287353;33;20765;-81
2021/06/18 08:00:11;;;;;;;7.53;1.65;;;;;;;;;;4293569;33;20053;-85
2021/06/18 08:02:41;;;;;;;9.52;2.17;;;;;;;;;;4295602;33;20498;-84
2021/06/18 08:05:12;;;;;;;8.82;2.30;;;;;;;;;;4301468;33;20052;-81
2021/06/18 08:07:46;;;;;;;14.25;2.87;;;;;;;;;;4292066;33;20095;-82
2021/06/18 08:10:17;;;;;;;10.80;2.60;;;;;;;;;;4294138;33;20090;-85
2021/06/18 08:12:50;;;;;;;8.37;2.10;;;;;;;;;;4299808;33;20116;-83
2021/06/18 08:15:21;;;;;;;9.45;2.78;;;;;;;;;;4290420;33;20158;-80
2021/06/18 08:17:49;;;;;;;8.18;2.45;;;;;;;;;;4286453;33;20636;-84
2021/06/18 08:20:20;;;;;;;8.27;2.80;;;;;;;;;;4286978;33;20476;-80
2021/06/18 08:22:49;;;;;;;9.38;2.22;;;;;;;;;;4292623;33;20045;-83
2021/06/18 08:25:17;;;;;;;7.87;2.20;;;;;;;;;;4286778;33;20100;-79
2021/06/18 08:27:48;;;;;;;6.68;2.28;;;;;;;;;;4284578;33;22556;-83
2021/06/18 08:30:20;;;;;;;7.80;2.03;;;;;;;;;;4297865;33;20082;-82
2021/06/18 08:32:53;;;;;;;;;;;;;;;;;;4292294;33;20108;-85
2021/06/18 08:35:27;;;;;;;9.00;2.65;;;;;;;;;;4293370;33;19986;-80
2021/06/18 08:37:55;;;;;;;8.30;2.00;;;;;;;;;;4296377;33;20187;-87
2021/06/18 08:40:31;;;;;;;9.35;2.30;;;;;;;;;;4289777;33;20180;-79
2021/06/18 08:43:00;;;;;;;6.55;2.30;;;;;;;;;;4289112;33;20097;-81
2021/06/18 08:45:32;;;;;;;8.10;2.05;;;;;;;;;;4275662;33;20169;-81
2021/06/18 08:48:01;;;;;;;9.60;2.53;;;;;;;;;;4289143;33;20571;-83
2021/06/18 08:50:32;;;;;;;13.27;3.08;;;;;;;;;;4295353;33;20078;-80
2021/06/18 08:53:02;;;;;;;10.35;2.55;;;;;;;;;;4295659;33;20564;-80
2021/06/18 08:55:33;;;;;;;14.13;3.03;;;;;;;;;;4298953;33;20073;-82
2021/06/18 08:58:04;;;;;;;12.00;2.95;;;;;;;;;;4297368;33;20087;-86
2021/06/18 09:00:33;;;;;;;12.27;3.05;;;;;;;;;;4296677;33;20049;-82
2021/06/18 09:03:22;;;;;;;6.50;1.95;;;;;;;;;;4292602;33;20053;-83
2021/06/18 09:05:59;;;;;;;12.27;2.80;;;;;;;;;;4290551;33;20092;-80
2021/06/18 09:08:27;;;;;;;13.00;2.40;;;;;;;;;;4294037;33;20460;-82
2021/06/18 09:10:58;;;;;;;9.63;2.62;;;;;;;;;;4296775;33;20390;-80
2021/06/18 09:13:31;;;;;;;11.50;2.90;;;;;;;;;;4302674;33;20070;-84
2021/06/18 09:16:00;;;;;;;9.73;2.53;;;;;;;;;;4303098;33;20526;-85
2021/06/18 09:18:35;;;;;;;12.30;2.53;;;;;;;;;;4300579;33;20073;-88
2021/06/18 09:21:10;;;;;;;9.77;2.80;;;;;;;;;;4308318;33;20106;-82
2021/06/18 09:23:46;;;;;;;9.68;2.53;;;;;;;;;;4284898;33;20082;-82
2021/06/18 09:26:27;;;;;;;13.73;2.50;;;;;;;;;;4289573;33;20056;-80
2021/06/18 09:28:59;;;;;;;5.78;1.85;;;;;;;;;;4302187;33;20624;-82
2021/06/18 09:31:31;;;;;;;13.20;2.70;;;;;;;;;;4304947;33;20112;-81
2021/06/18 09:34:03;;;;;;;8.60;2.08;;;;;;;;;;4297384;33;20254;-83
2021/06/18 09:36:35;;;;;;;10.27;2.25;;;;;;;;;;4308293;33;20091;-85
2021/06/18 09:39:13;;;;;;;13.65;3.05;;;;;;;;;;4305553;33;20070;-83
2021/06/18 09:41:45;;;;;;;12.18;2.60;;;;;;;;;;4305999;33;20056;-85
2021/06/18 09:44:22;;;;;;;13.90;2.53;;;;;;;;;;4304038;33;20072;-82
2021/06/18 09:46:54;;;;;;;49.47;4.22;;;;;;;;;;4300064;33;20460;-82
2021/06/18 09:49:31;;;;;;;10.50;2.40;;;;;;;;;;4297654;33;20128;-82
2021/06/18 09:52:06;;;;;;;9.45;2.28;;;;;;;;;;4304196;33;20078;-79
2021/06/18 09:54:42;;;;;;;9.90;2.33;;;;;;;;;;4307376;33;20060;-82
2021/06/18 09:57:17;;;;;;;14.95;3.12;;;;;;;;;;4304973;33;20123;-83
2021/06/18 10:00:00;;;;;;;7.03;2.15;;;;;;;;;;4300520;33;20528;-83
2021/06/18 10:02:37;;;;;;;8.00;2.12;;;;;;;;;;4306007;33;20110;-79
2021/06/18 10:05:10;;;;;;;7.22;2.10;;;;;;;;;;4300749;33;20136;-84
2021/06/18 10:07:39;;;;;;;7.80;2.17;;;;;;;;;;4297308;33;20431;-84
2021/06/18 10:10:10;;;;;;;12.37;2.30;;;;;;;;;;4306720;33;20041;-84
2021/06/18 10:12:39;;;;;;;9.55;2.12;;;;;;;;;;4303981;33;20352;-86
2021/06/18 10:15:10;;;;;;;10.55;2.42;;;;;;;;;;4291974;33;20065;-83
2021/06/18 10:17:41;;;;;;;14.75;2.50;;;;;;;;;;4287868;33;20510;-80
2021/06/18 10:20:22;;;;;;;10.43;2.58;;;;;;;;;;4285309;33;20814;-80
2021/06/18 10:22:59;;;;;;;13.43;2.58;;;;;;;;;;4272613;33;20175;-81
2021/06/18 10:25:38;;;;;;;7.78;1.85;;;;;;;;;;4263919;33;20147;-82
2021/06/18 10:28:17;;;;;;;9.82;1.95;;;;;;;;;;4273471;33;20116;-82
2021/06/18 10:30:54;;;;;;;9.23;2.00;;;;;;;;;;4260788;33;20104;-82
2021/06/18 10:33:28;;;;;;;6.90;1.92;;;;;;;;;;4262133;33;20152;-83
2021/06/18 10:36:04;;;;;;;8.68;2.10;;;;;;;;;;4263452;33;20118;-82
2021/06/18 10:38:40;;;;;;;10.25;2.53;;;;;;;;;;4262123;33;20100;-81
2021/06/18 10:41:13;;;;;;;10.25;2.25;;;;;;;;;;4263016;33;20122;-80
2021/06/18 10:43:49;;;;;;;6.97;2.10;;;;;;;;;;4300195;33;20409;-80
2021/06/18 10:46:30;;;;;;;14.68;2.25;;;;;;;;;;4285817;33;20107;-84
2021/06/18 10:49:03;;;;;;;10.95;2.10;;;;;;;;;;4300521;33;20088;-81
2021/06/18 10:51:34;;;;;;;16.65;2.85;;;;;;;;;;4300294;33;20061;-80
2021/06/18 10:54:06;;;;;;;6.20;2.00;;;;;;;;;;4297263;33;20099;-85
2021/06/18 10:56:46;;;;;;;7.07;2.12;;;;;;;;;;4300803;33;20407;-82
2021/06/18 10:59:27;;;;;;;17.02;2.25;;;;;;;;;;4295920;33;20048;-82
2021/06/18 11:01:56;;;;;;;18.83;2.47;;;;;;;;;;4301520;33;20106;-79
2021/06/18 11:04:44;;;;;;;8.30;2.08;;;;;;;;;;4303639;33;20065;-80
2021/06/18 11:07:22;;;;;;;6.53;1.62;;;;;;;;;;4289917;33;20436;-86
2021/06/18 11:10:00;;;;;;;10.02;1.90;;;;;;;;;;4303843;33;20099;-81
2021/06/18 11:12:31;;;;;;;5.55;1.80;;;;;;;;;;4280848;33;20093;-83
2021/06/18 11:15:05;;;;;;;19.08;3.00;;;;;;;;;;4304047;33;20073;-82
2021/06/18 11:17:45;;;;;;;6.53;1.73;;;;;;;;;;4298378;33;20226;-81
2021/06/18 11:20:21;;;;;;;10.43;1.60;;;;;;;;;;4307036;33;20087;-81
2021/06/18 11:23:06;;;;;;;12.18;2.47;;;;;;;;;;4298816;33;20771;-83
2021/06/18 11:28:18;;;;;;;7.20;1.50;;;;;;;;;;4276334;33;20634;-84
2021/06/18 11:30:57;;;;;;;14.52;2.30;;;;;;;;;;4269825;33;20104;-83
2021/06/18 11:33:37;;;;;;;7.50;1.60;;;;;;;;;;4299597;33;20053;-82
2021/06/18 11:36:09;;;;;;;7.57;2.00;;;;;;;;;;4283697;33;20128;-83
2021/06/18 11:38:41;;;;;;;6.57;1.60;;;;;;;;;;4296277;33;20099;-83
2021/06/18 11:41:10;;;;;;;11.50;1.90;;;;;;;;;;4300428;33;20409;-86
2021/06/18 11:43:40;;;;;;;7.40;1.95;;;;;;;;;;4295902;33;20053;-84
2021/06/18 11:46:09;;;;;;;5.43;1.58;;;;;;;;;;4301894;33;20087;-80
2021/06/18 11:48:41;;;;;;;8.20;1.98;;;;;;;;;;4294886;33;20098;-84
2021/06/18 11:51:19;;;;;;;10.32;2.00;;;;;;;;;;4304712;33;20067;-83
2021/06/18 11:53:48;;;;;;;7.47;1.73;;;;;;;;;;4302707;33;20107;-84
2021/06/18 11:56:19;;;;;;;9.70;1.42;;;;;;;;;;4303247;33;20052;-87
2021/06/18 11:58:51;;;;;;;3.75;1.50;;;;;;;;;;4290689;33;20214;-79
2021/06/18 12:01:21;;;;;;;6.60;1.40;;;;;;;;;;4305236;33;20057;-80
2021/06/18 12:03:53;;;;;;;3.87;1.50;;;;;;;;;;4293326;33;20084;-78
2021/06/18 12:06:29;;;;;;;9.82;2.12;;;;;;;;;;4294434;33;20075;-81
2021/06/18 12:09:19;;;;;;;6.62;1.40;;;;;;;;;;4294922;33;20078;-80
2021/06/18 12:12:00;;;;;;;7.43;1.42;;;;;;;;;;4301111;33;20053;-83
2021/06/18 12:14:39;;;;;;;12.57;2.08;;;;;;;;;;4286222;33;20466;-84
2021/06/18 12:17:08;;;;;;;11.80;1.62;;;;;;;;;;4290323;33;20053;-83
2021/06/18 12:19:44;;;;;;;7.15;1.52;;;;;;;;;;4290931;33;20053;-90
2021/06/18 12:22:27;;;;;;;9.90;1.48;;;;;;;;;;4290772;33;20109;-84
2021/06/18 12:24:57;;;;;;;23.45;2.03;;;;;;;;;;4293554;33;20499;-82
2021/06/18 12:27:30;;;;;;;7.55;1.80;;;;;;;;;;4295550;33;20403;-83
2021/06/18 12:30:03;;;;;;;5.97;1.33;;;;;;;;;;4286778;33;20087;-81
2021/06/18 12:32:33;;;;;;;4.65;1.50;;;;;;;;;;4289093;33;20096;-83
2021/06/18 12:35:06;;;;;;;6.53;1.70;;;;;;;;;;4293935;33;20472;-80
2021/06/18 12:37:36;;;;;;;7.70;1.60;;;;;;;;;;4296280;33;20056;-83
2021/06/18 12:40:06;;;;;;;5.85;1.37;;;;;;;;;;4290049;33;20135;-81
2021/06/18 12:42:48;;;;;;;6.93;1.37;;;;;;;;;;4303839;33;20055;-82
2021/06/18 12:45:29;;;;;;;7.70;1.62;;;;;;;;;;4304102;33;20127;-88
2021/06/18 12:48:14;;;;;;;9.07;1.50;;;;;;;;;;4294152;33;20180;-82
2021/06/18 12:50:51;;;;;;;8.27;1.60;;;;;;;;;;4300981;33;20102;-85
2021/06/18 12:53:31;;;;;;;6.72;1.60;;;;;;;;;;4294773;33;20075;-81
2021/06/18 12:56:15;;;;;;;9.70;1.77;;;;;;;;;;4298579;33;20100;-80
2021/06/18 12:58:47;;;;;;;5.30;1.40;;;;;;;;;;4292719;33;20082;-79
2021/06/18 13:01:22;;;;;;;24.77;2.30;;;;;;;;;;4292492;33;20053;-82
2021/06/18 13:04:10;;;;;;;7.10;1.60;;;;;;;;;;4301340;33;20516;-87
2021/06/18 13:06:46;;;;;;;4.15;1.10;;;;;;;;;;4308035;33;20090;-83
2021/06/18 13:09:31;;;;;;;5.95;1.67;;;;;;;;;;4306240;33;20423;-80
2021/06/18 13:12:04;;;;;;;38.28;3.22;;;;;;;;;;4304172;33;20087;-87
2021/06/18 13:14:40;;;;;;;7.87;1.12;;;;;;;;;;4291803;33;20110;-88
2021/06/18 13:17:12;;;;;;;14.85;2.37;;;;;;;;;;4306141;33;20531;-83
2021/06/18 13:19:46;;;;;;;7.60;1.27;;;;;;;;;;4295164;33;20077;-89
2021/06/18 13:22:21;;;;;;;11.45;1.85;;;;;;;;;;4300066;33;20080;-78
2021/06/18 13:24:53;;;;;;;5.05;1.37;;;;;;;;;;4303819;33;20105;-85
2021/06/18 13:27:25;;;;;;;21.83;2.12;;;;;;;;;;4301033;33;20487;-80
2021/06/18 13:30:08;;;;;;;6.22;1.33;;;;;;;;;;4292123;33;20099;-82
2021/06/18 13:32:46;;;;;;;11.20;1.52;;;;;;;;;;4294864;33;20108;-82
2021/06/18 13:35:26;;;;;;;11.88;1.17;;;;;;;;;;4292686;33;20122;-80
2021/06/18 13:37:58;;;;;;;5.18;1.27;;;;;;;;;;4289069;33;20099;-84
2021/06/18 13:40:32;;;;;;;7.03;1.30;;;;;;;;;;4303737;33;20560;-84
2021/06/18 13:43:00;;;;;;;12.80;1.70;;;;;;;;;;4291195;33;20073;-80
2021/06/18 13:45:33;;;;;;;16.75;2.08;;;;;;;;;;4303747;33;20110;-84
2021/06/18 13:48:04;;;;;;;10.15;1.80;;;;;;;;;;4298230;33;20069;-84
2021/06/18 13:50:49;;;;;;;5.90;1.10;;;;;;;;;;4299935;33;20120;-87
2021/06/18 13:53:18;;;;;;;6.28;1.48;;;;;;;;;;4300000;33;20228;-81
2021/06/18 13:55:49;;;;;;;6.57;1.58;;;;;;;;;;4300764;33;20432;-90
2021/06/18 13:58:21;;;;;;;6.72;1.30;;;;;;;;;;4288210;33;20127;-83
2021/06/18 14:00:49;;;;;;;16.80;2.03;;;;;;;;;;4291484;33;20107;-82
2021/06/18 14:03:21;;;;;;;5.18;1.52;;;;;;;;;;4296165;33;20076;-79
2021/06/18 14:05:49;;;;;;;8.88;1.95;;;;;;;;;;4277187;33;20084;-83
2021/06/18 14:08:21;;;;;;;4.90;1.35;;;;;;;;;;4265741;33;20132;-81
2021/06/18 14:10:51;;;;;;;11.20;1.90;;;;;;;;;;4281207;33;20120;-81
2021/06/18 14:13:20;;;;;;;8.82;1.30;;;;;;;;;;4280890;33;20453;-80
2021/06/18 14:15:50;;;;;;;10.10;1.50;;;;;;;;;;4294439;33;20075;-78
2021/06/18 14:18:22;;;;;;;7.15;1.30;;;;;;;;;;4268881;33;20072;-89
2021/06/18 14:20:53;;;;;;;22.90;1.52;;;;;;;;;;4287849;33;20091;-81
2021/06/18 14:23:24;;;;;;;5.15;0.90;;;;;;;;;;4276501;33;20103;-80
2021/06/18 14:25:55;;;;;;;6.93;1.20;;;;;;;;;;4278825;33;20127;-78
2021/06/18 14:28:24;;;;;;;8.93;1.27;;;;;;;;;;4277845;33;20107;-79
2021/06/18 14:30:52;;;;;;;10.10;1.50;;;;;;;;;;4281881;33;20510;-78
2021/06/18 14:33:23;;;;;;;6.15;1.02;;;;;;;;;;4290292;33;20127;-81
2021/06/18 14:35:53;;;;;;;8.25;1.30;;;;;;;;;;4260026;33;20695;-80
2021/06/18 14:38:22;;;;;;;9.30;1.27;;;;;;;;;;4283936;33;20121;-84
2021/06/18 14:40:52;;;;;;;8.07;1.20;;;;;;;;;;4295231;33;20440;-81
2021/06/18 14:43:23;;;;;;;11.18;1.75;;;;;;;;;;4281387;33;20547;-82
2021/06/18 14:45:53;;;;;;;3.67;0.90;;;;;;;;;;4279701;33;20589;-83
2021/06/18 14:48:25;;;;;;;7.55;1.35;;;;;;;;;;4288386;33;20112;-81
2021/06/18 14:50:56;;;;;;;13.57;2.00;;;;;;;;;;4302483;33;20511;-82
2021/06/18 14:53:25;;;;;;;9.48;1.83;;;;;;;;;;4286174;33;20089;-85
2021/06/18 14:55:54;;;;;;;6.68;1.12;;;;;;;;;;4289138;33;20121;-81
2021/06/18 14:58:25;;;;;;;7.93;1.30;;;;;;;;;;4283487;33;20534;-85
2021/06/18 15:00:54;;;;;;;2.67;1.08;;;;;;;;;;4293826;33;20060;-87
2021/06/18 15:03:25;;;;;;;3.12;0.77;;;;;;;;;;4285457;33;20125;-83
2021/06/18 15:05:55;;;;;;;8.02;1.30;;;;;;;;;;4278365;33;20112;-86
2021/06/18 15:08:27;;;;;;;6.82;1.23;;;;;;;;;;4278306;33;20412;-78
2021/06/18 15:10:57;;;;;;;8.93;1.62;;;;;;;;;;4274640;33;20162;-79
2021/06/18 15:13:26;;;;;;;16.95;1.70;;;;;;;;;;4275511;33;20709;-82
2021/06/18 15:15:57;;;;;;;8.68;1.83;;;;;;;;;;4301057;33;20385;-81
2021/06/18 15:18:28;;;;;;;11.57;1.80;;;;;;;;;;4287783;33;20083;-85
2021/06/18 15:20:59;;;;;;;10.23;1.80;;;;;;;;;;4295607;33;20060;-82
2021/06/18 15:23:30;;;;;;;5.15;1.20;;;;;;;;;;4281541;33;20139;-81
2021/06/18 15:26:01;;;;;;;6.93;1.40;;;;;;;;;;4282583;33;20065;-83
2021/06/18 15:28:30;;;;;;;6.10;1.27;;;;;;;;;;4267831;33;20097;-81
2021/06/18 15:30:58;;;;;;;4.07;1.02;;;;;;;;;;4268062;33;20172;-85
2021/06/18 15:33:30;;;;;;;6.35;1.45;;;;;;;;;;4264895;33;20665;-80
2021/06/18 15:36:02;;;;;;;7.07;1.62;;;;;;;;;;4278913;33;20104;-82
2021/06/18 15:38:31;;;;;;;10.05;1.50;;;;;;;;;;4282155;33;20471;-81
2021/06/18 15:41:02;;;;;;;13.32;1.87;;;;;;;;;;4285728;33;20065;-83